Time;durP1;ratioP1;P1;durP2;ratioP2;P2;SDS_P1;SDS_P2;PMS_P1;PMS_P2;Temp;Humidity;BMP_temperature;BMP_pressure;BME280_temperature;BME280_humidity;BME280_pressure;Samples;Min_cycle;Max_cycle;Signal;HPM_P1;HPM_P2
2023/05/02 00:02:20;;;;;;;11.50;7.20;;;;;;;12.60;40.82;100218.59;110439;1261;23700;-78
2023/05/02 00:04:52;;;;;;;8.40;6.50;;;;;;;12.59;40.93;100218.30;110469;1261;23044;-79
2023/05/02 00:07:27;;;;;;;10.40;6.90;;;;;;;12.56;41.11;100217.23;110740;1261;21967;-78
2023/05/02 00:10:04;;;;;;;10.00;7.20;;;;;;;12.52;41.05;100212.52;110771;1261;22065;-77
2023/05/02 00:12:35;;;;;;;9.60;6.80;;;;;;;12.49;41.24;100206.71;110862;1260;21964;-78
2023/05/02 00:15:08;;;;;;;11.00;7.40;;;;;;;12.47;41.45;100202.64;110892;1256;21998;-78
2023/05/02 00:17:43;;;;;;;15.10;8.40;;;;;;;12.44;41.50;100198.42;110846;1260;24296;-79
2023/05/02 00:20:19;;;;;;;11.30;7.40;;;;;;;12.41;41.67;100198.57;110805;1257;23782;-78
2023/05/02 00:22:56;;;;;;;12.30;7.70;;;;;;;12.37;41.65;100199.80;111181;1256;21949;-78
2023/05/02 00:25:28;;;;;;;12.70;8.90;;;;;;;12.36;41.80;100198.29;111584;1248;21959;-78
2023/05/02 00:27:58;;;;;;;10.70;8.40;;;;;;;12.35;41.87;100195.72;111406;1256;21953;-78
2023/05/02 00:30:28;;;;;;;17.00;9.60;;;;;;;12.35;41.92;100193.23;111146;1256;22208;-77
2023/05/02 00:33:05;;;;;;;13.90;9.40;;;;;;;12.35;42.11;100188.20;111081;1256;22706;-77
2023/05/02 00:35:51;;;;;;;10.90;9.50;;;;;;;12.35;42.04;100188.56;111328;1256;21953;-78
2023/05/02 00:38:39;;;;;;;11.60;8.70;;;;;;;12.34;42.19;100183.55;111271;1255;21979;-79
2023/05/02 00:41:10;;;;;;;11.60;7.90;;;;;;;12.34;42.24;100183.04;111223;1256;21957;-78
2023/05/02 00:43:43;;;;;;;11.30;8.30;;;;;;;12.33;42.41;100178.34;111107;1256;21952;-76
2023/05/02 00:46:16;;;;;;;13.70;7.70;;;;;;;12.34;42.38;100177.42;111099;1256;21952;-78
2023/05/02 00:48:50;;;;;;;11.60;8.00;;;;;;;12.35;42.31;100178.61;111329;1255;21963;-78
2023/05/02 00:51:34;;;;;;;11.00;6.70;;;;;;;12.36;42.30;100176.96;110700;1261;23052;-79
2023/05/02 00:54:08;;;;;;;11.70;7.50;;;;;;;12.38;42.37;100176.39;110685;1261;23048;-79
2023/05/02 00:56:45;;;;;;;12.10;6.70;;;;;;;12.37;42.40;100175.54;110330;1267;23085;-78
2023/05/02 00:59:19;;;;;;;12.00;7.40;;;;;;;12.36;42.42;100173.66;109637;1271;23699;-78
2023/05/02 01:02:42;;;;;;;10.00;7.10;;;;;;;12.36;42.43;100172.46;109293;1271;21987;-78
2023/05/02 01:05:35;;;;;;;12.90;7.10;;;;;;;12.33;42.48;100172.05;109049;1278;23075;-79
2023/05/02 01:08:37;;;;;;;10.40;7.00;;;;;;;12.34;42.71;100169.59;108534;1284;22016;-78
2023/05/02 01:11:51;;;;;;;12.30;6.30;;;;;;;12.35;42.81;100171.45;108599;1280;21994;-79
2023/05/02 01:14:27;;;;;;;10.10;7.20;;;;;;;12.32;42.92;100171.93;108160;1287;23939;-78
2023/05/02 01:17:03;;;;;;;10.40;7.10;;;;;;;12.30;42.95;100172.77;108520;1279;21987;-79
2023/05/02 01:19:37;;;;;;;13.20;8.10;;;;;;;12.30;43.06;100170.30;108651;1282;22010;-77
2023/05/02 01:22:10;;;;;;;9.50;6.80;;;;;;;12.29;42.94;100169.81;108666;1282;21986;-79
2023/05/02 01:24:49;;;;;;;12.00;7.00;;;;;;;12.27;43.11;100168.50;108731;1282;21982;-77
2023/05/02 01:27:27;;;;;;;12.00;6.80;;;;;;;12.25;43.23;100166.69;108990;1277;22106;-78
2023/05/02 01:29:59;;;;;;;9.10;6.90;;;;;;;12.22;43.23;100165.07;109204;1277;23197;-78
2023/05/02 01:32:34;;;;;;;10.70;7.30;;;;;;;12.19;43.34;100159.80;109071;1277;21992;-80
2023/05/02 01:35:07;;;;;;;8.80;7.30;;;;;;;12.16;43.66;100160.31;109080;1277;22083;-77
2023/05/02 01:37:41;;;;;;;11.40;6.80;;;;;;;12.15;43.67;100161.42;109271;1273;22177;-78
2023/05/02 01:40:16;;;;;;;9.10;6.40;;;;;;;12.12;43.95;100157.52;109353;1265;22004;-78
2023/05/02 01:42:50;;;;;;;10.10;6.50;;;;;;;12.11;43.97;100161.79;110251;1265;22905;-78
2023/05/02 01:45:22;;;;;;;8.00;6.20;;;;;;;12.09;44.09;100160.44;110221;1265;21958;-78
2023/05/02 01:47:54;;;;;;;9.40;7.30;;;;;;;12.06;44.23;100156.42;110412;1265;21990;-78
2023/05/02 01:50:30;;;;;;;11.60;6.90;;;;;;;12.01;44.41;100153.67;110505;1256;22159;-78
2023/05/02 01:53:03;;;;;;;15.60;8.40;;;;;;;11.96;44.52;100154.46;111037;1256;22734;-78
2023/05/02 01:55:41;;;;;;;14.70;7.60;;;;;;;11.93;44.77;100151.63;110743;1260;21991;-78
2023/05/02 01:58:15;;;;;;;10.60;6.70;;;;;;;11.92;44.62;100148.34;110769;1260;21962;-76
2023/05/02 02:00:46;;;;;;;14.50;7.90;;;;;;;11.89;44.82;100148.48;110763;1260;21958;-79
2023/05/02 02:03:19;;;;;;;15.20;9.00;;;;;;;11.85;44.85;100143.77;110733;1260;21957;-77
2023/05/02 02:05:54;;;;;;;13.50;7.30;;;;;;;11.82;44.92;100142.67;110046;1267;23030;-77
2023/05/02 02:08:25;;;;;;;13.70;8.50;;;;;;;11.83;45.03;100140.55;109194;1273;22955;-78
2023/05/02 02:11:10;;;;;;;13.40;8.20;;;;;;;11.82;45.13;100140.23;109301;1273;23324;-78
2023/05/02 02:13:48;;;;;;;13.00;9.00;;;;;;;11.78;45.32;100140.40;109539;1257;21981;-79
2023/05/02 02:16:24;;;;;;;12.60;8.50;;;;;;;11.75;45.61;100139.52;109631;1269;23711;-79
2023/05/02 02:18:58;;;;;;;11.50;7.80;;;;;;;11.73;45.55;100138.02;109220;1274;22025;-79
2023/05/02 02:21:31;;;;;;;14.60;7.70;;;;;;;11.73;45.79;100136.65;109229;1274;24542;-76
2023/05/02 02:24:08;;;;;;;11.00;7.70;;;;;;;11.72;45.70;100137.04;109420;1269;21977;-76
2023/05/02 02:26:39;;;;;;;14.40;8.20;;;;;;;11.70;45.81;100137.65;109801;1268;21994;-77
2023/05/02 02:29:12;;;;;;;10.60;7.30;;;;;;;11.70;45.90;100140.97;109802;1268;22721;-76
2023/05/02 02:31:59;;;;;;;17.20;7.90;;;;;;;11.68;46.01;100141.74;109953;1268;22326;-78
2023/05/02 02:34:30;;;;;;;11.10;8.10;;;;;;;11.64;46.22;100140.34;109419;1273;23063;-76
2023/05/02 02:37:10;;;;;;;13.60;8.50;;;;;;;11.62;46.21;100142.54;109223;1271;23625;-78
2023/05/02 02:39:53;;;;;;;12.00;8.20;;;;;;;11.60;46.61;100140.73;109688;1271;21973;-77
2023/05/02 02:42:47;;;;;;;12.30;7.80;;;;;;;11.57;46.64;100142.23;109848;1271;23607;-77
2023/05/02 02:45:30;;;;;;;16.80;8.40;;;;;;;11.57;46.65;100147.30;109672;1269;21991;-77
2023/05/02 02:48:29;;;;;;;11.60;7.70;;;;;;;11.59;46.75;100147.90;109697;1269;21973;-78
2023/05/02 02:51:21;;;;;;;12.10;8.20;;;;;;;11.61;46.91;100147.33;110191;1268;21980;-78
2023/05/02 02:54:19;;;;;;;10.40;7.80;;;;;;;11.62;46.88;100149.17;109924;1268;21969;-78
2023/05/02 02:57:11;;;;;;;12.90;7.70;;;;;;;11.62;46.92;100149.17;110763;1264;21976;-77
2023/05/02 03:00:09;;;;;;;14.90;8.10;;;;;;;11.63;47.14;100150.70;110752;1256;24495;-77
2023/05/02 03:02:45;;;;;;;13.30;8.30;;;;;;;11.62;47.23;100151.96;110709;1261;22019;-77
2023/05/02 03:05:17;;;;;;;11.40;8.30;;;;;;;11.63;47.27;100149.83;110733;1261;22087;-76
2023/05/02 03:07:53;;;;;;;11.60;8.60;;;;;;;11.64;47.42;100150.49;110733;1261;21973;-76
2023/05/02 03:10:36;;;;;;;14.10;8.40;;;;;;;11.65;47.65;100151.47;110769;1261;22717;-78
2023/05/02 03:13:10;;;;;;;11.00;8.60;;;;;;;11.67;47.64;100150.50;110747;1260;21954;-78
2023/05/02 03:15:58;;;;;;;10.30;8.60;;;;;;;11.66;47.61;100151.76;110850;1254;21987;-78
2023/05/02 03:18:32;;;;;;;12.70;8.70;;;;;;;11.67;47.65;100150.66;110252;1268;22022;-76
2023/05/02 03:21:08;;;;;;;16.60;9.40;;;;;;;11.68;47.84;100154.27;110170;1267;21968;-77
2023/05/02 03:23:41;;;;;;;13.90;9.90;;;;;;;11.71;47.89;100155.75;110171;1268;21979;-77
2023/05/02 03:26:14;;;;;;;13.60;10.10;;;;;;;11.74;47.84;100161.36;110099;1268;21959;-77
2023/05/02 03:29:03;;;;;;;23.70;18.70;;;;;;;11.74;47.93;100162.21;110867;1263;21969;-78
2023/05/02 03:31:40;;;;;;;28.30;24.10;;;;;;;11.76;48.05;100165.27;110547;1263;21964;-77
2023/05/02 03:34:14;;;;;;;21.30;14.80;;;;;;;11.78;48.21;100168.14;110511;1263;21968;-78
2023/05/02 03:36:59;;;;;;;14.80;13.00;;;;;;;11.78;48.39;100168.34;110907;1256;22239;-76
2023/05/02 03:39:35;;;;;;;19.60;16.40;;;;;;;11.77;48.48;100174.30;110986;1256;23699;-77
2023/05/02 03:42:14;;;;;;;17.40;14.00;;;;;;;11.76;48.54;100169.98;111143;1256;21964;-77
2023/05/02 03:44:45;;;;;;;21.30;19.00;;;;;;;11.79;48.67;100171.57;111131;1255;23484;-80
2023/05/02 03:47:18;;;;;;;19.20;15.40;;;;;;;11.80;48.84;100174.48;111029;1256;21956;-78
2023/05/02 03:49:52;;;;;;;22.30;17.60;;;;;;;11.85;48.91;100177.74;111075;1256;22088;-78
2023/05/02 03:52:24;;;;;;;20.50;18.30;;;;;;;11.87;48.97;100179.22;111109;1254;22739;-80
2023/05/02 03:54:54;;;;;;;23.70;18.20;;;;;;;11.91;48.96;100182.91;111078;1256;23658;-77
2023/05/02 03:57:32;;;;;;;26.10;19.60;;;;;;;11.94;49.01;100188.55;111195;1256;24330;-78
2023/05/02 04:00:05;;;;;;;20.30;16.60;;;;;;;11.96;49.03;100191.58;111073;1255;24376;-77
2023/05/02 04:02:50;;;;;;;29.60;24.70;;;;;;;12.01;48.99;100196.41;110879;1256;22143;-78
2023/05/02 04:05:34;;;;;;;32.10;27.60;;;;;;;12.05;49.13;100199.58;111065;1256;22042;-78
2023/05/02 04:08:12;;;;;;;30.80;27.90;;;;;;;12.07;49.17;100205.56;111171;1256;24629;-79
2023/05/02 04:10:53;;;;;;;29.00;26.30;;;;;;;12.12;49.39;100206.73;111107;1255;23688;-77
2023/05/02 04:13:32;;;;;;;29.60;26.40;;;;;;;12.18;49.37;100207.47;110903;1256;21964;-77
2023/05/02 04:16:22;;;;;;;29.10;25.80;;;;;;;12.23;49.28;100206.56;110972;1254;21954;-78
2023/05/02 04:19:12;;;;;;;27.30;21.10;;;;;;;12.29;49.40;100208.73;110406;1257;23068;-76
2023/05/02 04:21:42;;;;;;;21.00;18.70;;;;;;;12.36;49.33;100210.12;110611;1262;24293;-76
2023/05/02 04:24:13;;;;;;;23.80;17.90;;;;;;;12.41;49.45;100206.05;110577;1263;22027;-77
2023/05/02 04:26:46;;;;;;;19.50;14.70;;;;;;;12.45;49.45;100205.33;110609;1263;21979;-77
2023/05/02 04:29:19;;;;;;;16.30;13.10;;;;;;;12.47;49.61;100209.59;110602;1263;21968;-77
2023/05/02 04:31:57;;;;;;;15.80;13.10;;;;;;;12.52;49.78;100210.23;110186;1263;22026;-76
2023/05/02 04:34:30;;;;;;;18.60;14.00;;;;;;;12.62;49.90;100214.11;109808;1268;21955;-78
2023/05/02 04:37:05;;;;;;;16.00;13.00;;;;;;;12.68;49.99;100216.09;109724;1263;21969;-76
2023/05/02 04:39:48;;;;;;;15.70;11.30;;;;;;;12.77;49.93;100224.92;110537;1259;22953;-76
2023/05/02 04:42:24;;;;;;;17.30;12.70;;;;;;;12.83;49.89;100228.48;110507;1261;21948;-76
2023/05/02 04:45:13;;;;;;;17.70;12.10;;;;;;;12.88;49.86;100233.64;110272;1261;23078;-77
2023/05/02 04:47:53;;;;;;;13.20;10.70;;;;;;;12.96;50.02;100239.37;110636;1261;22013;-76
2023/05/02 04:50:27;;;;;;;13.90;11.00;;;;;;;13.06;50.03;100242.55;110785;1261;23627;-77
2023/05/02 04:52:59;;;;;;;18.50;11.30;;;;;;;13.16;49.91;100248.86;110810;1261;22977;-77
2023/05/02 04:55:30;;;;;;;14.80;8.70;;;;;;;13.24;49.93;100255.60;110742;1261;23700;-76
2023/05/02 04:58:00;;;;;;;10.50;8.60;;;;;;;13.30;49.78;100252.88;110655;1261;22293;-78
2023/05/02 05:00:42;;;;;;;;;;;;;;;13.33;49.81;100259.40;111119;1256;22313;-77
2023/05/02 05:03:21;;;;;;;13.20;8.50;;;;;;;13.29;50.07;100263.41;110613;1261;21965;-76
2023/05/02 05:06:08;;;;;;;9.80;8.60;;;;;;;13.34;50.19;100270.88;110720;1261;21977;-76
2023/05/02 05:08:44;;;;;;;10.40;7.80;;;;;;;13.40;50.13;100273.20;110722;1261;22062;-75
2023/05/02 05:11:15;;;;;;;;;;;;;;;13.44;50.10;100281.04;110817;1261;22162;-75
2023/05/02 05:13:45;;;;;;;15.10;8.80;;;;;;;13.42;50.59;100280.40;110753;1260;23710;-75
2023/05/02 05:16:23;;;;;;;13.90;9.30;;;;;;;13.51;50.65;100283.82;110653;1260;21970;-76
2023/05/02 05:18:54;;;;;;;15.20;8.90;;;;;;;13.60;50.63;100284.58;110513;1260;23026;-77
2023/05/02 05:21:27;;;;;;;12.20;9.30;;;;;;;13.69;50.72;100285.34;110566;1262;21968;-76
2023/05/02 05:24:08;;;;;;;11.10;7.80;;;;;;;13.78;51.09;100286.27;110728;1262;23695;-76
2023/05/02 05:26:38;;;;;;;15.00;11.50;;;;;;;13.91;51.32;100290.14;110591;1262;21957;-76
2023/05/02 05:29:14;;;;;;;13.90;10.50;;;;;;;13.99;51.44;100291.15;110655;1262;22324;-76
2023/05/02 05:31:46;;;;;;;11.70;9.00;;;;;;;14.09;51.81;100293.94;110762;1254;23853;-76
2023/05/02 05:34:41;;;;;;;9.40;7.80;;;;;;;14.20;51.94;100296.31;110360;1262;23790;-79
2023/05/02 05:37:31;;;;;;;9.90;7.80;;;;;;;14.32;52.06;100297.98;109957;1268;21948;-76
2023/05/02 05:40:08;;;;;;;15.70;9.30;;;;;;;14.39;52.09;100295.81;109863;1267;23723;-76
2023/05/02 05:42:43;;;;;;;11.50;8.40;;;;;;;14.46;52.47;100296.13;109882;1268;21967;-77
2023/05/02 05:45:24;;;;;;;9.60;8.30;;;;;;;14.54;52.63;100295.35;109601;1267;21979;-77
2023/05/02 05:48:00;;;;;;;11.60;7.80;;;;;;;14.61;52.57;100297.08;109787;1267;21983;-78
2023/05/02 05:50:36;;;;;;;10.30;8.00;;;;;;;14.68;52.86;100301.11;110113;1267;21982;-77
2023/05/02 05:53:09;;;;;;;9.60;7.80;;;;;;;14.70;52.81;100303.79;109999;1268;22110;-77
2023/05/02 05:55:41;;;;;;;10.90;7.70;;;;;;;14.66;53.00;100303.31;109904;1268;22033;-77
2023/05/02 05:58:15;;;;;;;8.50;7.60;;;;;;;14.61;53.07;100303.55;110034;1263;22179;-76
2023/05/02 06:00:49;;;;;;;12.70;7.80;;;;;;;14.57;53.35;100300.43;110295;1263;22760;-76
2023/05/02 06:03:20;;;;;;;;;;;;;;;14.53;53.65;100306.45;111105;1256;21899;-78
2023/05/02 06:05:54;;;;;;;14.40;9.00;;;;;;;14.45;54.08;100312.11;111030;1256;21959;-77
2023/05/02 06:08:24;;;;;;;;;;;;;;;14.47;54.27;100311.85;110965;1256;24260;-77
2023/05/02 06:10:59;;;;;;;10.90;7.60;;;;;;;14.42;54.64;100314.21;111210;1256;24334;-76
2023/05/02 06:13:33;;;;;;;13.50;8.20;;;;;;;14.50;54.94;100314.14;111054;1255;21927;-77
2023/05/02 06:16:05;;;;;;;10.30;7.70;;;;;;;14.57;54.86;100312.34;111191;1256;23027;-77
2023/05/02 06:18:43;;;;;;;14.80;13.30;;;;;;;14.61;54.87;100313.53;111340;1255;21926;-76
2023/05/02 06:21:19;;;;;;;12.80;11.10;;;;;;;14.66;54.87;100316.27;111392;1252;21953;-77
2023/05/02 06:23:55;;;;;;;12.00;8.40;;;;;;;14.69;54.92;100325.03;111186;1256;21984;-77
2023/05/02 06:26:26;;;;;;;11.40;8.70;;;;;;;14.73;55.07;100332.50;111222;1255;23024;-77
2023/05/02 06:29:00;;;;;;;12.40;7.80;;;;;;;14.76;54.96;100340.05;111382;1255;22004;-77
2023/05/02 06:31:33;;;;;;;9.20;7.60;;;;;;;14.79;54.95;100350.59;110995;1259;21968;-76
2023/05/02 06:34:03;;;;;;;11.60;8.70;;;;;;;14.80;55.15;100352.08;110904;1259;22961;-76
2023/05/02 06:36:44;;;;;;;8.70;7.70;;;;;;;14.82;55.49;100358.10;110614;1259;22039;-76
2023/05/02 06:39:18;;;;;;;11.70;8.60;;;;;;;14.84;55.60;100356.25;110777;1259;21985;-77
2023/05/02 06:42:01;;;;;;;11.20;10.00;;;;;;;14.87;55.61;100354.55;110609;1259;22008;-78
2023/05/02 06:44:38;;;;;;;9.60;8.00;;;;;;;14.86;55.65;100357.16;110555;1264;23094;-77
2023/05/02 06:47:12;;;;;;;12.20;8.90;;;;;;;14.91;55.64;100363.60;110338;1264;21938;-76
2023/05/02 06:49:45;;;;;;;8.10;7.30;;;;;;;14.92;55.97;100368.82;109736;1270;21983;-76
2023/05/02 06:52:29;;;;;;;8.40;7.50;;;;;;;14.95;55.80;100371.55;109795;1270;22008;-80
2023/05/02 06:55:02;;;;;;;11.00;8.00;;;;;;;14.98;55.84;100377.19;109698;1268;21997;-77
2023/05/02 06:57:32;;;;;;;9.60;7.60;;;;;;;15.04;55.97;100385.61;109859;1268;21981;-78
2023/05/02 07:00:09;;;;;;;8.00;6.60;;;;;;;15.11;55.76;100386.84;109951;1267;24302;-77
2023/05/02 07:02:40;;;;;;;10.00;7.40;;;;;;;15.21;55.93;100389.81;110123;1262;22015;-79
2023/05/02 07:05:42;;;;;;;9.60;7.70;;;;;;;15.39;55.92;100402.10;110674;1262;22130;-79
2023/05/02 07:08:38;;;;;;;11.80;7.80;;;;;;;15.64;56.03;100404.85;110879;1256;23647;-78
2023/05/02 07:14:20;;;;;;;13.30;7.80;;;;;;;15.95;54.81;100417.29;110840;1262;24022;-79
2023/05/02 07:16:57;;;;;;;12.30;7.70;;;;;;;16.08;54.74;100418.98;110686;1262;21961;-78
2023/05/02 07:19:37;;;;;;;7.90;7.00;;;;;;;16.25;54.53;100417.60;110622;1260;22346;-78
2023/05/02 07:22:19;;;;;;;7.90;6.70;;;;;;;16.42;54.20;100419.57;110605;1260;21968;-78
2023/05/02 07:25:00;;;;;;;7.80;6.80;;;;;;;16.56;53.51;100426.62;110443;1261;22100;-77
2023/05/02 07:27:32;;;;;;;9.50;6.90;;;;;;;16.59;52.72;100433.99;109838;1268;23700;-77
2023/05/02 07:30:07;;;;;;;12.30;7.60;;;;;;;16.56;52.70;100437.48;109602;1263;21979;-78
2023/05/02 07:32:40;;;;;;;9.00;7.20;;;;;;;16.58;52.59;100437.58;109575;1272;23695;-77
2023/05/02 07:35:11;;;;;;;8.80;7.70;;;;;;;16.62;52.27;100440.48;109165;1276;21980;-78
2023/05/02 07:37:40;;;;;;;9.20;7.00;;;;;;;16.69;52.45;100442.65;109016;1276;21982;-77
2023/05/02 07:40:12;;;;;;;8.90;7.10;;;;;;;16.92;52.86;100441.61;109209;1275;22427;-77
2023/05/02 07:42:51;;;;;;;10.30;8.10;;;;;;;17.38;53.18;100447.51;109057;1278;23619;-77
2023/05/02 07:45:41;;;;;;;9.80;6.60;;;;;;;17.97;52.06;100448.75;108993;1274;21946;-80
2023/05/02 07:48:14;;;;;;;9.20;6.30;;;;;;;18.38;50.30;100455.73;109859;1269;22047;-80
2023/05/02 07:51:05;;;;;;;8.80;6.50;;;;;;;18.69;49.19;100459.85;110245;1265;22735;-81
2023/05/02 07:53:42;;;;;;;8.10;6.20;;;;;;;19.08;48.94;100463.48;110665;1247;22971;-77
2023/05/02 07:56:24;;;;;;;7.80;6.90;;;;;;;19.61;48.47;100467.75;110924;1257;21976;-78
2023/05/02 07:58:55;;;;;;;8.90;7.30;;;;;;;20.13;47.02;100469.06;110756;1260;23807;-78
2023/05/02 08:01:31;;;;;;;9.70;7.70;;;;;;;20.49;45.62;100469.82;111394;1256;22150;-78
2023/05/02 08:04:03;;;;;;;11.00;7.00;;;;;;;20.66;44.46;100471.71;111461;1256;21985;-78
2023/05/02 08:06:36;;;;;;;8.10;7.30;;;;;;;20.77;43.75;100477.23;111542;1247;23023;-77
2023/05/02 08:09:10;;;;;;;11.70;7.30;;;;;;;20.82;43.05;100486.39;111201;1251;21948;-77
2023/05/02 08:11:41;;;;;;;9.70;6.40;;;;;;;20.84;42.84;100488.67;111160;1255;21996;-79
2023/05/02 08:14:21;;;;;;;8.60;6.30;;;;;;;20.94;42.79;100489.16;111463;1256;22012;-78
2023/05/02 08:16:54;;;;;;;7.90;6.50;;;;;;;21.12;42.30;100490.90;111181;1256;21993;-78
2023/05/02 08:19:25;;;;;;;8.50;5.90;;;;;;;21.27;42.17;100490.94;111400;1256;21923;-77
2023/05/02 08:21:58;;;;;;;9.40;6.70;;;;;;;21.60;41.95;100490.60;111314;1256;22015;-78
2023/05/02 08:24:30;;;;;;;7.50;6.20;;;;;;;21.97;41.37;100491.98;111237;1256;21918;-77
2023/05/02 08:27:49;;;;;;;12.30;5.80;;;;;;;22.31;40.08;100494.09;111243;1256;21964;-77
2023/05/02 08:30:49;;;;;;;8.70;5.80;;;;;;;22.38;38.97;100498.16;111161;1256;21977;-77
2023/05/02 08:33:45;;;;;;;6.80;5.30;;;;;;;22.44;38.50;100498.57;111189;1256;21970;-84
2023/05/02 08:36:54;;;;;;;7.40;5.20;;;;;;;22.70;38.31;100501.95;111041;1256;22887;-78
2023/05/02 08:39:31;;;;;;;12.00;7.60;;;;;;;23.00;37.64;100504.55;111409;1257;23666;-78
2023/05/02 08:42:09;;;;;;;9.80;5.80;;;;;;;23.05;37.11;100503.95;111155;1257;21966;-76
2023/05/02 08:44:51;;;;;;;7.90;6.20;;;;;;;22.94;36.47;100505.33;111104;1256;21955;-77
2023/05/02 08:47:35;;;;;;;6.70;5.90;;;;;;;22.97;36.72;100506.38;111320;1257;23612;-76
2023/05/02 08:50:13;;;;;;;6.10;4.80;;;;;;;23.16;36.61;100514.14;111042;1257;22613;-76
2023/05/02 08:52:44;;;;;;;8.90;5.60;;;;;;;23.31;36.11;100515.80;111128;1256;21981;-77
2023/05/02 08:55:38;;;;;;;7.60;5.00;;;;;;;23.49;35.88;100517.06;111254;1257;21985;-81
2023/05/02 09:01:40;;;;;;;6.20;4.80;;;;;;;23.72;34.66;100515.88;110036;1270;21967;-77
2023/05/02 09:04:38;;;;;;;6.70;4.40;;;;;;;23.86;34.69;100521.95;109605;1270;23818;-76
2023/05/02 09:07:19;;;;;;;7.20;6.00;;;;;;;23.94;34.15;100523.14;109772;1270;21986;-77
2023/05/02 09:10:05;;;;;;;7.80;5.70;;;;;;;24.12;34.52;100522.08;109604;1270;23683;-77
2023/05/02 09:12:38;;;;;;;7.20;4.60;;;;;;;24.34;33.86;100521.64;109501;1274;21975;-76
2023/05/02 09:15:37;;;;;;;8.80;5.10;;;;;;;24.54;33.26;100521.54;108649;1283;21992;-76
2023/05/02 09:18:10;;;;;;;6.60;4.40;;;;;;;24.74;33.26;100527.20;108405;1283;253242;-76
2023/05/02 09:21:07;;;;;;;6.40;4.30;;;;;;;24.96;32.72;100530.76;108484;1283;23663;-78
2023/05/02 09:23:59;;;;;;;5.80;3.80;;;;;;;25.22;32.10;100528.83;108578;1283;22303;-76
2023/05/02 09:26:35;;;;;;;4.90;3.90;;;;;;;25.51;31.75;100532.60;108512;1283;22052;-78
2023/05/02 09:29:07;;;;;;;;;;;;;;;25.73;30.94;100532.23;108554;1283;21985;-77
2023/05/02 09:31:40;;;;;;;4.90;3.60;;;;;;;25.74;30.00;100534.95;108830;1276;24580;-76
2023/05/02 09:34:40;;;;;;;10.50;4.10;;;;;;;25.54;29.43;100532.29;109022;1276;22011;-76
2023/05/02 09:37:52;;;;;;;7.10;3.20;;;;;;;25.33;29.80;100535.25;109203;1276;23042;-78
2023/05/02 09:41:09;;;;;;;7.60;2.40;;;;;;;25.26;30.45;100540.94;110345;1264;21995;-76
2023/05/02 09:43:43;;;;;;;5.70;3.50;;;;;;;25.32;30.32;100544.39;110292;1264;23644;-77
2023/05/02 09:46:26;;;;;;;6.20;3.20;;;;;;;25.57;30.21;100548.54;110408;1264;21970;-77
2023/05/02 09:49:10;;;;;;;6.00;4.00;;;;;;;25.82;29.52;100551.30;110387;1264;21966;-76
2023/05/02 09:51:49;;;;;;;7.10;3.30;;;;;;;25.85;29.33;100553.36;110211;1253;21981;-76
2023/05/02 09:54:39;;;;;;;4.50;2.90;;;;;;;25.83;28.54;100561.15;110238;1264;23036;-76
2023/05/02 09:57:35;;;;;;;4.60;2.80;;;;;;;25.73;28.76;100563.41;110415;1264;22910;-77
2023/05/02 10:00:14;;;;;;;7.10;3.60;;;;;;;25.73;28.90;100563.05;110442;1264;21999;-77
2023/05/02 10:02:52;;;;;;;6.90;3.50;;;;;;;25.86;28.49;100571.33;110243;1264;23837;-76
2023/05/02 10:05:42;;;;;;;6.40;3.00;;;;;;;25.88;27.69;100560.89;110561;1264;22037;-76
2023/05/02 10:08:28;;;;;;;5.90;3.00;;;;;;;25.69;27.41;100557.94;110334;1263;22961;-76
2023/05/02 10:11:22;;;;;;;7.20;2.40;;;;;;;25.61;27.63;100563.88;110393;1264;22982;-76
2023/05/02 10:14:14;;;;;;;10.50;2.80;;;;;;;25.60;27.85;100565.77;110010;1264;23706;-75
2023/05/02 10:17:12;;;;;;;6.50;2.90;;;;;;;25.67;27.49;100563.85;110420;1264;21967;-78
2023/05/02 10:20:02;;;;;;;6.00;3.70;;;;;;;25.56;27.44;100568.77;110165;1264;22055;-76
2023/05/02 10:22:36;;;;;;;12.90;4.30;;;;;;;25.41;27.88;100570.28;110186;1264;23583;-76
2023/05/02 10:25:17;;;;;;;5.60;3.80;;;;;;;25.22;28.11;100573.19;110326;1260;23589;-76
2023/05/02 10:28:04;;;;;;;3.70;3.00;;;;;;;24.95;28.13;100572.14;110059;1264;21992;-75
2023/05/02 10:30:43;;;;;;;5.50;4.10;;;;;;;24.70;28.62;100573.61;109886;1268;21975;-75
2023/05/02 10:33:20;;;;;;;4.10;3.60;;;;;;;24.50;28.38;100575.66;109372;1273;22034;-75
2023/05/02 10:36:18;;;;;;;;;;;;;;;;;;;;;
2023/05/02 10:39:24;;;;;;;7.10;3.60;;;;;;;24.36;29.47;100586.02;109344;1273;22032;-75
2023/05/02 10:42:07;;;;;;;6.40;4.00;;;;;;;24.31;29.16;100586.94;109365;1273;21979;-75
2023/05/02 10:44:45;;;;;;;6.80;3.80;;;;;;;24.13;28.96;100591.31;109386;1273;21980;-75
2023/05/02 10:47:30;;;;;;;7.30;4.10;;;;;;;23.96;28.85;100592.98;108947;1276;22083;-75
2023/05/02 10:50:17;;;;;;;7.00;2.70;;;;;;;23.69;28.74;100595.91;109105;1273;22011;-75
2023/05/02 10:53:00;;;;;;;7.90;3.30;;;;;;;23.48;29.14;100595.86;110092;1267;22434;-76
2023/05/02 10:55:54;;;;;;;;;;;;;;;;;;;;;
2023/05/02 10:59:34;;;;;;;8.40;3.60;;;;;;;23.32;29.66;100598.16;109738;1268;21977;-77
2023/05/02 11:02:50;;;;;;;5.00;3.60;;;;;;;23.06;29.73;100599.47;109788;1268;21977;-75
2023/05/02 11:05:49;;;;;;;10.10;4.20;;;;;;;22.84;29.93;100598.36;109999;1263;21993;-77
2023/05/02 11:08:40;;;;;;;5.30;3.30;;;;;;;22.87;30.19;100597.41;110471;1263;22007;-76
2023/05/02 11:11:51;;;;;;;4.40;3.00;;;;;;;22.97;30.11;100600.98;110540;1263;21956;-75
2023/05/02 11:14:49;;;;;;;6.40;3.60;;;;;;;22.99;29.93;100601.69;110633;1263;24348;-76
2023/05/02 11:19:03;;;;;;;5.70;4.10;;;;;;;22.87;29.55;100607.28;110430;1250;21958;-75
2023/05/02 11:21:48;;;;;;;7.40;3.80;;;;;;;22.81;29.96;100612.59;110576;1263;21970;-76
2023/05/02 11:24:43;;;;;;;;;;;;;;;22.93;30.02;100615.70;110436;1259;21960;-78
2023/05/02 11:27:40;;;;;;;6.80;4.20;;;;;;;22.86;30.02;100615.02;110115;1268;23596;-76
2023/05/02 11:30:47;;;;;;;6.50;3.70;;;;;;;22.85;30.11;100615.80;109339;1272;22029;-76
2023/05/02 11:34:03;;;;;;;4.80;3.50;;;;;;;22.75;29.88;100615.61;109222;1275;23067;-77
2023/05/02 11:36:39;;;;;;;7.80;3.40;;;;;;;22.74;29.94;100615.15;109299;1279;21993;-79
2023/05/02 11:39:22;;;;;;;4.50;3.90;;;;;;;22.73;30.24;100618.92;109198;1280;22060;-77
2023/05/02 11:42:05;;;;;;;5.40;4.20;;;;;;;22.75;30.22;100620.40;108452;1287;22766;-79
2023/05/02 11:45:06;;;;;;;6.90;4.50;;;;;;;22.72;30.25;100619.17;108398;1286;22065;-79
2023/05/02 11:47:56;;;;;;;6.80;3.10;;;;;;;22.72;30.48;100622.92;108612;1278;23737;-76
2023/05/02 11:50:49;;;;;;;6.80;3.90;;;;;;;22.69;30.33;100626.39;108917;1279;23122;-78
2023/05/02 11:53:32;;;;;;;5.60;3.90;;;;;;;22.68;30.05;100627.58;109265;1268;22012;-78
2023/05/02 11:56:19;;;;;;;8.00;6.30;;;;;;;22.65;30.19;100627.75;109428;1274;21997;-78
2023/05/02 11:59:03;;;;;;;7.60;4.40;;;;;;;22.54;30.29;100626.58;109260;1274;22017;-78
2023/05/02 12:01:52;;;;;;;5.00;3.80;;;;;;;22.34;30.31;100629.14;109559;1268;23596;-78
2023/05/02 12:05:11;;;;;;;7.30;5.80;;;;;;;22.16;30.85;100633.77;109945;1267;23711;-78
2023/05/02 12:08:00;;;;;;;7.80;5.00;;;;;;;22.09;31.26;100636.97;109827;1273;21998;-78
2023/05/02 12:10:48;;;;;;;7.00;4.00;;;;;;;22.03;31.23;100638.18;109572;1273;22064;-79
2023/05/02 12:13:26;;;;;;;7.10;4.40;;;;;;;21.99;31.09;100635.66;109375;1274;22147;-78
2023/05/02 12:16:08;;;;;;;5.00;3.90;;;;;;;21.88;31.08;100631.96;109533;1274;22614;-78
2023/05/02 12:18:44;;;;;;;8.30;4.70;;;;;;;21.76;31.75;100634.36;109341;1274;23067;-79
2023/05/02 12:21:20;;;;;;;6.30;4.20;;;;;;;21.78;32.25;100641.81;109790;1270;22559;-80
2023/05/02 12:24:01;;;;;;;9.40;4.60;;;;;;;21.80;32.15;100646.59;109860;1270;21975;-79
2023/05/02 12:26:32;;;;;;;8.70;4.30;;;;;;;21.75;32.36;100647.52;109844;1264;22154;-78
2023/05/02 12:29:08;;;;;;;8.10;4.40;;;;;;;21.80;32.47;100645.73;109917;1268;21969;-78